createdAt,value
2022-11-16T07:18:26.934Z,99206.88
2022-11-16T07:21:31.119Z,99212.03
2022-11-16T07:24:34.661Z,99210.59
2022-11-16T07:27:38.152Z,99209.19
2022-11-16T07:30:41.193Z,99207.38
2022-11-16T07:33:44.472Z,99204.59
2022-11-16T07:36:50.896Z,99201.50
2022-11-16T07:39:53.958Z,99206.31
2022-11-16T07:42:58.723Z,99212.03
2022-11-16T07:49:34.182Z,99210.69
2022-11-16T07:52:38.224Z,99208.31
2022-11-16T07:55:41.202Z,99201.88
2022-11-16T07:58:45.749Z,99193.47
2022-11-16T08:01:48.931Z,99194.19
2022-11-16T08:04:53.051Z,99183.78
2022-11-16T08:07:56.876Z,99188.97
2022-11-16T08:11:05.579Z,99192.00
2022-11-16T08:14:11.649Z,99188.19
2022-11-16T08:17:14.838Z,99185.63
2022-11-16T08:20:19.115Z,99182.97
2022-11-16T08:23:22.852Z,99175.44
2022-11-16T08:26:26.276Z,99183.81
2022-11-16T08:29:30.394Z,99181.94
2022-11-16T08:32:33.504Z,99180.84
2022-11-16T08:35:36.790Z,99178.91
2022-11-16T08:38:40.679Z,99175.34
2022-11-16T08:41:44.476Z,99175.47
2022-11-16T08:44:47.541Z,99176.28
2022-11-16T08:48:03.100Z,99170.72
2022-11-16T08:51:18.652Z,99181.66
2022-11-16T08:54:22.886Z,99173.50
2022-11-16T08:57:25.561Z,99175.25
2022-11-16T09:00:28.859Z,99171.28
2022-11-16T09:03:31.442Z,99159.66
2022-11-16T09:06:36.024Z,99155.25
2022-11-16T09:09:38.536Z,99152.50
2022-11-16T09:12:41.805Z,99149.44
2022-11-16T09:15:45.001Z,99158.62
2022-11-16T09:18:49.846Z,99153.50
2022-11-16T09:21:52.565Z,99148.09
2022-11-16T09:24:55.498Z,99150.25
2022-11-16T09:27:58.131Z,99140.69
2022-11-16T09:31:04.361Z,99132.78
2022-11-16T09:34:07.625Z,99135.19
2022-11-16T09:37:10.566Z,99141.84
2022-11-16T09:40:13.350Z,99137.13
2022-11-16T09:43:53.604Z,99137.00
2022-11-16T09:46:59.062Z,99127.22
2022-11-16T09:50:05.505Z,99124.37
2022-11-16T09:53:26.871Z,99135.88
2022-11-16T09:56:35.339Z,99124.84
2022-11-16T09:59:45.219Z,99126.19
2022-11-16T10:02:52.109Z,99118.88
2022-11-16T10:06:05.310Z,99101.37
2022-11-16T10:09:11.188Z,99096.25
2022-11-16T10:12:34.145Z,99090.41
2022-11-16T10:16:10.721Z,99102.31
2022-11-16T10:19:36.045Z,99085.03
2022-11-16T10:22:38.640Z,99089.53
2022-11-16T10:25:41.526Z,99079.72
2022-11-16T10:28:53.629Z,99068.47
2022-11-16T10:32:22.452Z,99069.97
2022-11-16T10:35:31.257Z,99066.72
2022-11-16T10:38:35.005Z,99056.66
2022-11-16T10:41:42.719Z,99047.69
2022-11-16T10:44:53.458Z,99041.94
2022-11-16T10:48:25.001Z,99039.47
2022-11-16T10:51:28.141Z,99041.16
2022-11-16T10:54:30.707Z,99037.56
2022-11-16T10:58:04.045Z,99037.41
2022-11-16T11:01:10.947Z,99041.75
2022-11-16T11:04:16.970Z,99038.66
2022-11-16T11:07:30.909Z,99031.53
2022-11-16T11:10:36.883Z,99027.44
2022-11-16T11:13:39.586Z,99011.75
2022-11-16T11:16:42.785Z,99017.19
2022-11-16T11:19:45.334Z,99009.78
2022-11-16T11:22:58.596Z,99008.81
2022-11-16T11:26:01.435Z,99009.47
2022-11-16T11:29:16.791Z,99007.09
2022-11-16T11:32:24.103Z,99002.81
2022-11-16T11:35:34.309Z,98997.72
2022-11-16T11:39:03.459Z,98993.50
2022-11-16T11:42:15.114Z,98988.06
2022-11-16T11:45:19.582Z,98991.16
2022-11-16T11:48:29.203Z,98987.84
2022-11-16T11:51:37.213Z,98991.41
2022-11-16T11:54:46.806Z,98985.59
2022-11-16T11:57:53.734Z,98980.13
2022-11-16T12:01:25.285Z,98974.22
2022-11-16T12:05:00.968Z,98975.69
2022-11-16T12:08:14.711Z,98967.94
2022-11-16T12:11:38.842Z,98974.34
2022-11-16T12:14:56.215Z,98964.06
2022-11-16T12:17:59.029Z,98969.81
2022-11-16T12:21:31.405Z,98962.69
2022-11-16T12:24:56.747Z,98961.66
2022-11-16T12:28:04.105Z,98955.03
2022-11-16T12:31:44.670Z,98953.97
2022-11-16T12:34:56.219Z,98947.56
2022-11-16T12:38:27.954Z,98945.97
2022-11-16T12:41:42.477Z,98946.59
2022-11-16T12:45:10.968Z,98944.22
2022-11-16T12:48:43.172Z,98941.50
2022-11-16T12:52:13.581Z,98942.44
2022-11-16T12:55:44.119Z,98943.81
2022-11-16T12:59:13.611Z,98945.56
2022-11-16T13:02:54.308Z,98938.03
2022-11-16T13:06:25.555Z,98945.88
2022-11-16T13:09:32.792Z,98936.88
2022-11-16T13:12:37.268Z,98931.38
2022-11-16T13:15:42.694Z,98937.84
2022-11-16T13:18:47.017Z,98933.75
2022-11-16T13:22:03.139Z,98931.38
2022-11-16T13:25:05.974Z,98924.13
2022-11-16T13:28:17.380Z,98927.88
2022-11-16T13:31:20.566Z,98935.34
2022-11-16T13:34:31.953Z,98927.69
2022-11-16T13:37:37.750Z,98926.16
2022-11-16T13:40:41.019Z,98930.97
2022-11-16T13:43:49.512Z,98931.16
2022-11-16T13:46:56.978Z,98933.31
2022-11-16T13:50:02.952Z,98922.78
2022-11-16T13:56:49.903Z,98921.53
2022-11-16T14:00:01.549Z,98918.37
2022-11-16T14:03:15.524Z,98912.28
2022-11-16T14:06:24.241Z,98916.81
2022-11-16T14:09:48.460Z,98918.81
2022-11-16T14:12:54.066Z,98917.91
2022-11-16T14:16:14.931Z,98918.63
2022-11-16T14:19:49.308Z,98914.75
2022-11-16T14:23:26.393Z,98915.66
2022-11-16T14:26:48.064Z,98919.41
2022-11-16T14:30:15.591Z,98916.00
2022-11-16T14:33:29.499Z,98913.22
2022-11-16T14:36:51.088Z,98910.16
2022-11-16T14:40:01.938Z,98907.12
2022-11-16T14:43:16.962Z,98906.75
2022-11-16T14:46:30.103Z,98899.09
2022-11-16T14:49:36.055Z,98893.59
2022-11-16T14:52:47.562Z,98892.91
2022-11-16T14:55:50.169Z,98894.16
2022-11-16T14:58:54.225Z,98886.31
2022-11-16T15:01:58.079Z,98882.09
2022-11-16T15:05:01.382Z,98881.63
2022-11-16T15:08:21.601Z,98879.44
2022-11-16T15:11:56.804Z,98890.84
2022-11-16T15:15:05.436Z,98892.03
2022-11-16T15:18:13.095Z,98889.38
2022-11-16T15:21:23.127Z,98886.44
2022-11-16T15:24:30.916Z,98881.44
2022-11-16T15:27:40.163Z,98893.44
2022-11-16T15:30:46.443Z,98889.31
2022-11-16T15:33:50.366Z,98886.84
2022-11-16T15:36:53.200Z,98882.63
2022-11-16T15:39:58.098Z,98890.78
2022-11-16T15:43:04.572Z,98883.00
2022-11-16T15:46:08.547Z,98882.19
2022-11-16T15:49:38.488Z,98882.69
2022-11-16T15:52:46.107Z,98887.69
2022-11-16T15:55:50.169Z,98887.87
2022-11-16T15:58:54.540Z,98895.34
2022-11-16T16:01:57.521Z,98892.25
2022-11-16T16:05:00.388Z,98891.13
2022-11-16T16:08:03.642Z,98892.12
2022-11-16T16:11:28.036Z,98889.56
2022-11-16T16:14:30.932Z,98893.31
2022-11-16T16:17:34.439Z,98895.34
2022-11-16T16:20:47.223Z,98888.66
2022-11-16T16:23:53.642Z,98892.25
2022-11-16T16:26:56.239Z,98885.25
2022-11-16T16:30:04.447Z,98885.72
2022-11-16T16:33:18.489Z,98886.69
2022-11-16T16:36:23.673Z,98888.00
2022-11-16T16:39:26.626Z,98888.47
2022-11-16T16:42:29.609Z,98881.13
2022-11-16T16:45:38.796Z,98881.44
2022-11-16T16:48:44.616Z,98880.50
2022-11-16T16:51:47.427Z,98880.03
2022-11-16T16:54:50.519Z,98873.16
2022-11-16T16:57:57.431Z,98863.13
2022-11-16T17:01:05.625Z,98866.25
2022-11-16T17:04:08.545Z,98870.59
2022-11-16T17:07:11.467Z,98866.25
2022-11-16T17:10:14.111Z,98868.34
2022-11-16T17:13:17.025Z,98872.97
2022-11-16T17:16:19.691Z,98872.97
2022-11-16T17:19:22.554Z,98871.69
2022-11-16T17:22:25.533Z,98867.47
2022-11-16T17:25:30.248Z,98870.00
2022-11-16T17:28:33.234Z,98862.66
2022-11-16T17:31:36.380Z,98864.81
2022-11-16T17:34:41.400Z,98857.13
2022-11-16T17:37:44.560Z,98860.09
2022-11-16T17:40:47.315Z,98864.31
2022-11-16T17:43:53.178Z,98860.56
2022-11-16T17:46:55.849Z,98864.69
2022-11-16T17:49:59.306Z,98857.03
2022-11-16T17:53:01.967Z,98865.31
2022-11-16T17:56:06.636Z,98861.56
2022-11-16T17:59:09.353Z,98865.41
2022-11-16T18:02:12.326Z,98855.88
2022-11-16T18:05:15.385Z,98860.00
2022-11-16T18:08:18.021Z,98865.31
2022-11-16T18:11:26.805Z,98859.78
2022-11-16T18:14:29.477Z,98855.66
2022-11-16T18:17:32.556Z,98863.31
2022-11-16T18:20:37.127Z,98854.69
2022-11-16T18:23:40.096Z,98854.50
2022-11-16T18:26:42.877Z,98837.16
2022-11-16T18:29:45.762Z,98847.78
2022-11-16T18:32:49.335Z,98838.56
2022-11-16T18:35:52.153Z,98836.91
2022-11-16T18:38:54.776Z,98833.44
2022-11-16T18:41:57.645Z,98831.72
2022-11-16T18:45:00.271Z,98829.06
2022-11-16T18:48:07.269Z,98832.47
2022-11-16T18:51:11.237Z,98821.78
2022-11-16T18:54:14.948Z,98824.63
2022-11-16T18:57:17.617Z,98819.75
2022-11-16T19:00:21.027Z,98811.84
2022-11-16T19:03:23.702Z,98815.59
2022-11-16T19:06:26.723Z,98821.28
2022-11-16T19:09:29.317Z,98829.47
2022-11-16T19:12:32.353Z,98825.94
2022-11-16T19:15:35.375Z,98840.06
2022-11-16T19:18:38.588Z,98826.81
2022-11-16T19:21:41.912Z,98828.50
2022-11-16T19:24:44.853Z,98830.66
2022-11-16T19:27:47.481Z,98822.88
2022-11-16T19:30:50.418Z,98837.03
2022-11-16T19:33:55.160Z,98840.06
2022-11-16T19:36:57.928Z,98836.53
2022-11-16T19:40:00.651Z,98830.44
2022-11-16T19:43:03.861Z,98828.38
2022-11-16T19:46:09.104Z,98823.28
2022-11-16T19:49:19.633Z,98834.16
2022-11-16T19:52:22.705Z,98833.81
2022-11-16T19:55:25.619Z,98826.41
2022-11-16T19:58:28.459Z,98828.00
2022-11-16T20:01:31.523Z,98839.09
2022-11-16T20:04:34.481Z,98840.66
2022-11-16T20:07:38.875Z,98849.41
2022-11-16T20:10:41.935Z,98856.56
2022-11-16T20:13:44.499Z,98848.63
2022-11-16T20:16:50.340Z,98846.25
2022-11-16T20:19:52.950Z,98850.69
2022-11-16T20:22:55.922Z,98844.31
2022-11-16T20:25:58.517Z,98853.72
2022-11-16T20:29:01.546Z,98846.47
2022-11-16T20:32:04.176Z,98853.22
2022-11-16T20:35:07.329Z,98840.75
2022-11-16T20:38:10.015Z,98834.56
2022-11-16T20:41:15.889Z,98831.16
2022-11-16T20:44:21.414Z,98822.69
2022-11-16T20:47:27.166Z,98822.00
2022-11-16T20:50:29.871Z,98825.66
2022-11-16T20:53:34.428Z,98817.97
2022-11-16T20:56:37.872Z,98823.66
2022-11-16T20:59:40.750Z,98824.44
2022-11-16T21:02:43.294Z,98818.56
2022-11-16T21:05:51.663Z,98824.44
2022-11-16T21:08:55.522Z,98828.69
2022-11-16T21:12:17.216Z,98820.81
2022-11-16T21:15:19.860Z,98818.78
2022-11-16T21:18:27.858Z,98821.31
2022-11-16T21:21:33.305Z,98807.75
2022-11-16T21:24:36.009Z,98802.75
2022-11-16T21:27:38.636Z,98795.28
2022-11-16T21:30:41.518Z,98804.34
2022-11-16T21:33:45.215Z,98796.37
2022-11-16T21:36:48.091Z,98803.94
2022-11-16T21:39:50.713Z,98801.84
2022-11-16T21:42:53.619Z,98799.63
2022-11-16T21:46:03.043Z,98795.59
2022-11-16T21:49:07.598Z,98794.97
2022-11-16T21:52:10.176Z,98773.56
2022-11-16T21:55:13.014Z,98763.47
2022-11-16T21:58:15.624Z,98756.31
2022-11-16T22:01:19.592Z,98776.16
2022-11-16T22:04:41.080Z,98788.31
2022-11-16T22:07:43.728Z,98812.47
2022-11-16T22:10:52.984Z,98825.72
2022-11-16T22:13:55.615Z,98822.50
2022-11-16T22:16:58.472Z,98813.38
2022-11-16T22:20:01.072Z,98811.09
2022-11-16T22:23:03.997Z,98812.06
2022-11-16T22:26:12.221Z,98808.75
2022-11-16T22:29:15.033Z,98791.97
2022-11-16T22:32:17.706Z,98803.25
2022-11-16T22:35:20.701Z,98810.88
2022-11-16T22:38:23.498Z,98820.16
2022-11-16T22:41:26.397Z,98824.56
2022-11-16T22:44:28.913Z,98824.56
2022-11-16T22:47:33.465Z,98815.31
2022-11-16T22:50:36.542Z,98809.72
2022-11-16T22:53:39.402Z,98821.03
2022-11-16T22:56:42.910Z,98818.78
2022-11-16T22:59:45.831Z,98814.84
2022-11-16T23:02:48.581Z,98804.25
2022-11-16T23:05:51.627Z,98805.41
2022-11-16T23:08:54.595Z,98798.94
2022-11-16T23:12:16.701Z,98799.91
2022-11-16T23:15:37.958Z,98801.59
2022-11-16T23:18:40.879Z,98801.09
2022-11-16T23:22:02.436Z,98804.03
2022-11-16T23:25:26.453Z,98819.94
2022-11-16T23:28:29.063Z,98825.56
2022-11-16T23:31:31.951Z,98811.59
2022-11-16T23:34:34.737Z,98801.84
2022-11-16T23:37:55.728Z,98809.91
2022-11-16T23:40:58.299Z,98801.19
2022-11-16T23:44:01.269Z,98800.09
2022-11-16T23:47:03.917Z,98810.72
2022-11-16T23:50:07.048Z,98817.19
2022-11-16T23:53:10.361Z,98804.50
2022-11-16T23:56:13.304Z,98800.09
2022-11-16T23:59:16.142Z,98805.78
